CYCB

Cambridge Bay Airport

Cambridge Bay, Canada
METAR CYCB 220900Z 04007KT 12SM IC FEW010 M38/M42 A3036 RMK SC1 AURBO SLP290
Observed Flight Rules
Jan-22 @ 09:00 UTC (45 minutes ago) Visual Flight Rules
Wind Visibility Clouds Conditions
40° at 7 knots 12 miles
  • Few at 1,000' AGL
  • Ice crystals
Temperatures Readings
Current -38°C / -36°F
Dewpoint -42°C / -44°F
Humidity 66%
Altimeter 30.36" Hg
Pressure 1029 hPa
Elevation 27
METAR CYCB 220900Z 04007KT 12SM IC FEW010 M38/M42 A3036 RMK SC1 AURBO SLP290
Observed Flight Rules
Jan-22 @ 09:00 UTC
(45 minutes ago)
VFR
Wind Visibility
40° at 7 knots 12 miles
Clouds
  • Few at 1,000' AGL
Conditions
  • Ice crystals
Temperature Dewpoint
-38°C / -36°F -42°C / -44°F
Humidity Altimeter Pressure
66% 30.36" Hg 1029 hPa